sensor_id;sensor_type;location;lat;lon;timestamp;temperature;humidity
41060;DHT22;26811;53.160;8.202;2023-04-24T00:02:47;11.40;99.90
41060;DHT22;26811;53.160;8.202;2023-04-24T00:07:48;11.40;99.90
41060;DHT22;26811;53.160;8.202;2023-04-24T00:12:49;11.40;99.90
41060;DHT22;26811;53.160;8.202;2023-04-24T00:17:49;11.50;99.90
41060;DHT22;26811;53.160;8.202;2023-04-24T00:22:50;11.50;99.90
41060;DHT22;26811;53.160;8.202;2023-04-24T00:27:50;11.40;99.90
41060;DHT22;26811;53.160;8.202;2023-04-24T00:32:51;11.20;99.90
41060;DHT22;26811;53.160;8.202;2023-04-24T00:37:51;11.00;99.90
41060;DHT22;26811;53.160;8.202;2023-04-24T00:42:52;10.80;99.90
41060;DHT22;26811;53.160;8.202;2023-04-24T00:47:53;10.70;99.90
41060;DHT22;26811;53.160;8.202;2023-04-24T00:52:54;10.60;99.90
41060;DHT22;26811;53.160;8.202;2023-04-24T00:57:54;10.50;99.90
41060;DHT22;26811;53.160;8.202;2023-04-24T01:02:55;10.40;99.90
41060;DHT22;26811;53.160;8.202;2023-04-24T01:07:58;10.40;99.90
41060;DHT22;26811;53.160;8.202;2023-04-24T01:12:59;10.40;99.90
41060;DHT22;26811;53.160;8.202;2023-04-24T01:18:00;10.40;99.90
41060;DHT22;26811;53.160;8.202;2023-04-24T01:23:01;10.40;99.90
41060;DHT22;26811;53.160;8.202;2023-04-24T01:28:01;10.40;99.90
41060;DHT22;26811;53.160;8.202;2023-04-24T01:33:02;10.40;99.90
41060;DHT22;26811;53.160;8.202;2023-04-24T01:38:03;10.40;99.90
41060;DHT22;26811;53.160;8.202;2023-04-24T01:43:04;10.40;99.90
41060;DHT22;26811;53.160;8.202;2023-04-24T01:48:05;10.40;99.90
41060;DHT22;26811;53.160;8.202;2023-04-24T01:53:06;10.40;99.90
41060;DHT22;26811;53.160;8.202;2023-04-24T01:58:07;10.50;99.90
41060;DHT22;26811;53.160;8.202;2023-04-24T02:03:07;10.50;99.90
41060;DHT22;26811;53.160;8.202;2023-04-24T02:08:08;10.50;99.90
41060;DHT22;26811;53.160;8.202;2023-04-24T02:13:09;10.50;99.90
41060;DHT22;26811;53.160;8.202;2023-04-24T02:18:09;10.40;99.90
41060;DHT22;26811;53.160;8.202;2023-04-24T02:23:10;10.50;99.90
41060;DHT22;26811;53.160;8.202;2023-04-24T02:28:10;10.40;99.90
41060;DHT22;26811;53.160;8.202;2023-04-24T02:33:11;10.40;99.90
41060;DHT22;26811;53.160;8.202;2023-04-24T02:38:12;10.50;99.90
41060;DHT22;26811;53.160;8.202;2023-04-24T02:43:13;10.50;99.90
41060;DHT22;26811;53.160;8.202;2023-04-24T02:48:13;10.50;99.90
41060;DHT22;26811;53.160;8.202;2023-04-24T02:53:14;10.50;99.90
41060;DHT22;26811;53.160;8.202;2023-04-24T02:58:14;10.60;99.90
41060;DHT22;26811;53.160;8.202;2023-04-24T03:03:16;10.60;99.90
41060;DHT22;26811;53.160;8.202;2023-04-24T03:08:16;10.50;99.90
41060;DHT22;26811;53.160;8.202;2023-04-24T03:13:17;10.40;99.90
41060;DHT22;26811;53.160;8.202;2023-04-24T03:18:17;10.50;99.90
41060;DHT22;26811;53.160;8.202;2023-04-24T03:23:18;10.50;99.90
41060;DHT22;26811;53.160;8.202;2023-04-24T03:28:18;10.60;99.90
41060;DHT22;26811;53.160;8.202;2023-04-24T03:33:19;10.60;99.90
41060;DHT22;26811;53.160;8.202;2023-04-24T03:38:20;10.60;99.90
41060;DHT22;26811;53.160;8.202;2023-04-24T03:43:20;10.60;99.90
41060;DHT22;26811;53.160;8.202;2023-04-24T03:48:21;10.70;99.90
41060;DHT22;26811;53.160;8.202;2023-04-24T03:53:21;10.60;99.90
41060;DHT22;26811;53.160;8.202;2023-04-24T03:58:22;10.70;99.90
41060;DHT22;26811;53.160;8.202;2023-04-24T04:03:23;10.70;99.90
41060;DHT22;26811;53.160;8.202;2023-04-24T04:08:23;10.70;99.90
41060;DHT22;26811;53.160;8.202;2023-04-24T04:13:24;10.70;99.90
41060;DHT22;26811;53.160;8.202;2023-04-24T04:18:24;10.70;99.90
41060;DHT22;26811;53.160;8.202;2023-04-24T04:23:25;10.80;99.90
41060;DHT22;26811;53.160;8.202;2023-04-24T04:28:26;10.70;99.90
41060;DHT22;26811;53.160;8.202;2023-04-24T04:33:26;10.70;99.90
41060;DHT22;26811;53.160;8.202;2023-04-24T04:38:27;10.70;99.90
41060;DHT22;26811;53.160;8.202;2023-04-24T04:43:30;10.70;99.90
41060;DHT22;26811;53.160;8.202;2023-04-24T04:48:31;10.70;99.90
41060;DHT22;26811;53.160;8.202;2023-04-24T04:53:31;10.70;99.90
41060;DHT22;26811;53.160;8.202;2023-04-24T04:58:32;10.70;99.90
41060;DHT22;26811;53.160;8.202;2023-04-24T05:03:32;10.60;99.90
41060;DHT22;26811;53.160;8.202;2023-04-24T05:08:33;10.50;99.90
41060;DHT22;26811;53.160;8.202;2023-04-24T05:13:33;10.60;99.90
41060;DHT22;26811;53.160;8.202;2023-04-24T05:18:34;10.60;99.90
41060;DHT22;26811;53.160;8.202;2023-04-24T05:23:35;10.60;99.90
41060;DHT22;26811;53.160;8.202;2023-04-24T05:28:35;10.80;99.90
41060;DHT22;26811;53.160;8.202;2023-04-24T05:33:36;10.80;99.90
41060;DHT22;26811;53.160;8.202;2023-04-24T05:38:37;10.80;99.90
41060;DHT22;26811;53.160;8.202;2023-04-24T05:43:38;10.70;99.90
41060;DHT22;26811;53.160;8.202;2023-04-24T05:48:38;10.70;99.90
41060;DHT22;26811;53.160;8.202;2023-04-24T05:53:39;10.70;99.90
41060;DHT22;26811;53.160;8.202;2023-04-24T05:58:39;10.80;99.90
41060;DHT22;26811;53.160;8.202;2023-04-24T06:03:41;10.90;99.90
41060;DHT22;26811;53.160;8.202;2023-04-24T06:08:41;11.00;99.90
41060;DHT22;26811;53.160;8.202;2023-04-24T06:13:44;11.10;99.90
41060;DHT22;26811;53.160;8.202;2023-04-24T06:18:45;11.20;99.90
41060;DHT22;26811;53.160;8.202;2023-04-24T06:23:47;11.20;99.90
41060;DHT22;26811;53.160;8.202;2023-04-24T06:28:47;11.20;99.90
41060;DHT22;26811;53.160;8.202;2023-04-24T06:33:48;11.20;99.90
41060;DHT22;26811;53.160;8.202;2023-04-24T06:38:49;11.20;99.90
41060;DHT22;26811;53.160;8.202;2023-04-24T06:43:50;11.20;99.90
41060;DHT22;26811;53.160;8.202;2023-04-24T06:48:51;11.20;99.90
41060;DHT22;26811;53.160;8.202;2023-04-24T06:53:52;11.20;99.90
41060;DHT22;26811;53.160;8.202;2023-04-24T06:58:53;11.30;99.90
41060;DHT22;26811;53.160;8.202;2023-04-24T07:03:54;11.70;99.90
41060;DHT22;26811;53.160;8.202;2023-04-24T07:08:54;12.00;99.90
41060;DHT22;26811;53.160;8.202;2023-04-24T07:13:56;12.30;99.90
41060;DHT22;26811;53.160;8.202;2023-04-24T07:18:56;12.00;99.90
41060;DHT22;26811;53.160;8.202;2023-04-24T07:23:58;11.70;99.90
41060;DHT22;26811;53.160;8.202;2023-04-24T07:28:58;11.50;99.90
41060;DHT22;26811;53.160;8.202;2023-04-24T07:33:59;11.40;99.90
41060;DHT22;26811;53.160;8.202;2023-04-24T07:38:59;11.40;99.90
41060;DHT22;26811;53.160;8.202;2023-04-24T07:44:00;11.50;99.90
41060;DHT22;26811;53.160;8.202;2023-04-24T07:49:00;11.50;99.90
41060;DHT22;26811;53.160;8.202;2023-04-24T07:54:01;11.60;99.90
41060;DHT22;26811;53.160;8.202;2023-04-24T07:59:02;11.60;99.90
41060;DHT22;26811;53.160;8.202;2023-04-24T08:04:02;11.70;99.90
41060;DHT22;26811;53.160;8.202;2023-04-24T08:09:03;11.90;99.90
41060;DHT22;26811;53.160;8.202;2023-04-24T08:14:03;12.10;99.90
41060;DHT22;26811;53.160;8.202;2023-04-24T08:19:04;12.10;99.90
41060;DHT22;26811;53.160;8.202;2023-04-24T08:24:05;12.20;99.90
41060;DHT22;26811;53.160;8.202;2023-04-24T08:29:07;12.10;99.90
41060;DHT22;26811;53.160;8.202;2023-04-24T08:34:09;12.20;99.90
41060;DHT22;26811;53.160;8.202;2023-04-24T08:39:10;12.40;99.90
41060;DHT22;26811;53.160;8.202;2023-04-24T08:44:11;12.50;99.90
41060;DHT22;26811;53.160;8.202;2023-04-24T08:49:16;12.50;99.90
41060;DHT22;26811;53.160;8.202;2023-04-24T08:54:17;12.40;99.90
41060;DHT22;26811;53.160;8.202;2023-04-24T08:59:18;12.30;99.90
41060;DHT22;26811;53.160;8.202;2023-04-24T09:04:20;12.10;99.90
41060;DHT22;26811;53.160;8.202;2023-04-24T09:09:23;12.00;99.90
41060;DHT22;26811;53.160;8.202;2023-04-24T09:14:24;11.90;99.90
41060;DHT22;26811;53.160;8.202;2023-04-24T09:19:24;11.90;99.90
41060;DHT22;26811;53.160;8.202;2023-04-24T09:24:25;11.80;99.90
41060;DHT22;26811;53.160;8.202;2023-04-24T09:29:25;11.80;99.90
41060;DHT22;26811;53.160;8.202;2023-04-24T09:34:26;11.60;99.90
41060;DHT22;26811;53.160;8.202;2023-04-24T09:39:27;11.50;99.90
41060;DHT22;26811;53.160;8.202;2023-04-24T09:44:28;11.40;99.90
41060;DHT22;26811;53.160;8.202;2023-04-24T09:49:30;11.50;99.90
41060;DHT22;26811;53.160;8.202;2023-04-24T09:54:31;11.70;99.90
41060;DHT22;26811;53.160;8.202;2023-04-24T09:59:31;11.60;99.90
41060;DHT22;26811;53.160;8.202;2023-04-24T10:04:32;11.50;99.90
41060;DHT22;26811;53.160;8.202;2023-04-24T10:09:33;11.40;99.90
41060;DHT22;26811;53.160;8.202;2023-04-24T10:14:33;11.20;99.90
41060;DHT22;26811;53.160;8.202;2023-04-24T10:19:35;11.20;99.90
41060;DHT22;26811;53.160;8.202;2023-04-24T10:24:37;11.20;99.90
41060;DHT22;26811;53.160;8.202;2023-04-24T10:29:38;11.20;99.90
41060;DHT22;26811;53.160;8.202;2023-04-24T10:34:40;11.30;99.90
41060;DHT22;26811;53.160;8.202;2023-04-24T10:39:41;11.30;99.90
41060;DHT22;26811;53.160;8.202;2023-04-24T10:44:41;11.30;99.90
41060;DHT22;26811;53.160;8.202;2023-04-24T10:49:42;11.20;99.90
41060;DHT22;26811;53.160;8.202;2023-04-24T10:54:46;11.10;99.90
41060;DHT22;26811;53.160;8.202;2023-04-24T10:59:52;10.90;99.90
41060;DHT22;26811;53.160;8.202;2023-04-24T11:05:09;10.70;99.90
41060;DHT22;26811;53.160;8.202;2023-04-24T11:10:25;10.60;99.90
41060;DHT22;26811;53.160;8.202;2023-04-24T11:15:26;10.50;99.90
41060;DHT22;26811;53.160;8.202;2023-04-24T11:20:26;10.40;99.90
41060;DHT22;26811;53.160;8.202;2023-04-24T11:25:30;10.30;99.90
41060;DHT22;26811;53.160;8.202;2023-04-24T11:30:32;10.20;99.90
41060;DHT22;26811;53.160;8.202;2023-04-24T11:35:40;10.20;99.90
41060;DHT22;26811;53.160;8.202;2023-04-24T11:40:40;10.10;99.90
41060;DHT22;26811;53.160;8.202;2023-04-24T11:45:48;10.00;99.90
41060;DHT22;26811;53.160;8.202;2023-04-24T11:50:48;10.20;99.90
41060;DHT22;26811;53.160;8.202;2023-04-24T11:55:50;10.30;99.90
41060;DHT22;26811;53.160;8.202;2023-04-24T12:00:56;10.40;99.90
41060;DHT22;26811;53.160;8.202;2023-04-24T12:06:11;10.10;99.90
41060;DHT22;26811;53.160;8.202;2023-04-24T12:11:15;10.00;99.90
41060;DHT22;26811;53.160;8.202;2023-04-24T12:16:15;9.80;99.90
41060;DHT22;26811;53.160;8.202;2023-04-24T12:21:21;9.60;99.90
41060;DHT22;26811;53.160;8.202;2023-04-24T12:26:22;9.50;99.90
41060;DHT22;26811;53.160;8.202;2023-04-24T12:31:23;9.30;99.90
41060;DHT22;26811;53.160;8.202;2023-04-24T12:36:24;9.20;99.90
41060;DHT22;26811;53.160;8.202;2023-04-24T12:41:24;9.10;99.90
41060;DHT22;26811;53.160;8.202;2023-04-24T12:46:25;9.00;99.90
41060;DHT22;26811;53.160;8.202;2023-04-24T12:51:26;9.00;99.90
41060;DHT22;26811;53.160;8.202;2023-04-24T12:56:26;8.90;99.90
41060;DHT22;26811;53.160;8.202;2023-04-24T13:01:27;8.80;99.90
41060;DHT22;26811;53.160;8.202;2023-04-24T13:06:27;8.80;99.90
41060;DHT22;26811;53.160;8.202;2023-04-24T13:11:28;8.80;99.90
41060;DHT22;26811;53.160;8.202;2023-04-24T13:16:28;8.90;99.90
41060;DHT22;26811;53.160;8.202;2023-04-24T13:21:29;9.00;99.90
41060;DHT22;26811;53.160;8.202;2023-04-24T13:26:30;8.90;99.90
41060;DHT22;26811;53.160;8.202;2023-04-24T13:31:31;9.00;99.90
41060;DHT22;26811;53.160;8.202;2023-04-24T13:36:31;8.90;99.90
41060;DHT22;26811;53.160;8.202;2023-04-24T13:41:33;8.90;99.90
41060;DHT22;26811;53.160;8.202;2023-04-24T13:46:35;8.90;99.90
41060;DHT22;26811;53.160;8.202;2023-04-24T13:51:35;8.90;99.90
41060;DHT22;26811;53.160;8.202;2023-04-24T13:56:36;9.00;99.90
41060;DHT22;26811;53.160;8.202;2023-04-24T14:06:53;9.10;99.90
41060;DHT22;26811;53.160;8.202;2023-04-24T14:11:59;9.20;99.90
41060;DHT22;26811;53.160;8.202;2023-04-24T14:17:02;9.20;99.90
41060;DHT22;26811;53.160;8.202;2023-04-24T14:22:02;9.10;99.90
41060;DHT22;26811;53.160;8.202;2023-04-24T14:27:14;9.20;99.90
41060;DHT22;26811;53.160;8.202;2023-04-24T14:32:23;9.20;99.90
41060;DHT22;26811;53.160;8.202;2023-04-24T14:37:25;9.10;99.90
41060;DHT22;26811;53.160;8.202;2023-04-24T14:42:25;9.00;99.90
41060;DHT22;26811;53.160;8.202;2023-04-24T14:47:27;9.00;99.90
41060;DHT22;26811;53.160;8.202;2023-04-24T14:52:27;8.80;99.90
41060;DHT22;26811;53.160;8.202;2023-04-24T14:57:28;8.80;99.90
41060;DHT22;26811;53.160;8.202;2023-04-24T15:02:28;9.00;99.90
41060;DHT22;26811;53.160;8.202;2023-04-24T15:07:29;9.20;99.90
41060;DHT22;26811;53.160;8.202;2023-04-24T15:12:31;9.20;99.90
41060;DHT22;26811;53.160;8.202;2023-04-24T15:17:31;9.20;99.90
41060;DHT22;26811;53.160;8.202;2023-04-24T15:22:32;9.10;99.90
41060;DHT22;26811;53.160;8.202;2023-04-24T15:27:40;9.00;99.90
41060;DHT22;26811;53.160;8.202;2023-04-24T15:32:41;8.80;99.90
41060;DHT22;26811;53.160;8.202;2023-04-24T15:37:41;8.80;99.90
41060;DHT22;26811;53.160;8.202;2023-04-24T15:42:43;8.80;99.90
41060;DHT22;26811;53.160;8.202;2023-04-24T15:47:44;8.80;99.90
41060;DHT22;26811;53.160;8.202;2023-04-24T15:52:46;8.80;99.90
41060;DHT22;26811;53.160;8.202;2023-04-24T15:57:47;8.70;99.90
41060;DHT22;26811;53.160;8.202;2023-04-24T16:02:47;8.60;99.90
41060;DHT22;26811;53.160;8.202;2023-04-24T16:07:50;8.60;99.90
41060;DHT22;26811;53.160;8.202;2023-04-24T16:12:51;8.60;99.90
41060;DHT22;26811;53.160;8.202;2023-04-24T16:17:53;8.60;99.90
41060;DHT22;26811;53.160;8.202;2023-04-24T16:22:54;8.50;99.90
41060;DHT22;26811;53.160;8.202;2023-04-24T16:27:54;8.50;99.90
41060;DHT22;26811;53.160;8.202;2023-04-24T16:32:56;8.50;99.90
41060;DHT22;26811;53.160;8.202;2023-04-24T16:37:56;8.60;99.90
41060;DHT22;26811;53.160;8.202;2023-04-24T16:42:57;8.70;99.90
41060;DHT22;26811;53.160;8.202;2023-04-24T16:47:58;8.70;99.90
41060;DHT22;26811;53.160;8.202;2023-04-24T16:52:58;8.80;99.90
41060;DHT22;26811;53.160;8.202;2023-04-24T16:57:59;8.70;99.90
41060;DHT22;26811;53.160;8.202;2023-04-24T17:03:03;8.70;99.90
41060;DHT22;26811;53.160;8.202;2023-04-24T17:08:04;8.70;99.90
41060;DHT22;26811;53.160;8.202;2023-04-24T17:13:04;8.60;99.90
41060;DHT22;26811;53.160;8.202;2023-04-24T17:18:05;8.60;99.90
41060;DHT22;26811;53.160;8.202;2023-04-24T17:23:05;8.60;99.90
41060;DHT22;26811;53.160;8.202;2023-04-24T17:28:22;8.70;99.90
41060;DHT22;26811;53.160;8.202;2023-04-24T17:33:27;8.60;99.90
41060;DHT22;26811;53.160;8.202;2023-04-24T17:38:28;8.50;99.90
41060;DHT22;26811;53.160;8.202;2023-04-24T17:43:29;8.40;99.90
41060;DHT22;26811;53.160;8.202;2023-04-24T17:48:30;8.40;99.90
41060;DHT22;26811;53.160;8.202;2023-04-24T17:53:30;8.40;99.90
41060;DHT22;26811;53.160;8.202;2023-04-24T17:58:31;8.40;99.90
41060;DHT22;26811;53.160;8.202;2023-04-24T18:03:34;8.30;99.90
41060;DHT22;26811;53.160;8.202;2023-04-24T18:08:35;8.30;99.90
41060;DHT22;26811;53.160;8.202;2023-04-24T18:13:35;8.20;99.90
41060;DHT22;26811;53.160;8.202;2023-04-24T18:18:37;8.20;99.90
41060;DHT22;26811;53.160;8.202;2023-04-24T18:23:38;8.20;99.90
41060;DHT22;26811;53.160;8.202;2023-04-24T18:28:38;8.10;99.90
41060;DHT22;26811;53.160;8.202;2023-04-24T18:33:39;8.10;99.90
41060;DHT22;26811;53.160;8.202;2023-04-24T18:38:39;8.10;99.90
41060;DHT22;26811;53.160;8.202;2023-04-24T18:43:40;8.20;99.90
41060;DHT22;26811;53.160;8.202;2023-04-24T18:48:41;8.10;99.90
41060;DHT22;26811;53.160;8.202;2023-04-24T18:53:41;8.10;99.90
41060;DHT22;26811;53.160;8.202;2023-04-24T18:58:42;8.10;99.90
41060;DHT22;26811;53.160;8.202;2023-04-24T19:03:45;8.10;99.90
41060;DHT22;26811;53.160;8.202;2023-04-24T19:08:45;8.10;99.90
41060;DHT22;26811;53.160;8.202;2023-04-24T19:13:46;8.00;99.90
41060;DHT22;26811;53.160;8.202;2023-04-24T19:18:47;8.00;99.90
41060;DHT22;26811;53.160;8.202;2023-04-24T19:23:48;8.00;99.90
41060;DHT22;26811;53.160;8.202;2023-04-24T19:28:49;8.00;99.90
41060;DHT22;26811;53.160;8.202;2023-04-24T19:33:52;8.00;99.90
41060;DHT22;26811;53.160;8.202;2023-04-24T19:38:54;8.00;99.90
41060;DHT22;26811;53.160;8.202;2023-04-24T19:43:54;8.00;99.90
41060;DHT22;26811;53.160;8.202;2023-04-24T19:48:55;8.00;99.90
41060;DHT22;26811;53.160;8.202;2023-04-24T19:53:56;7.90;99.90
41060;DHT22;26811;53.160;8.202;2023-04-24T19:58:56;7.80;99.90
41060;DHT22;26811;53.160;8.202;2023-04-24T20:03:57;7.80;99.90
41060;DHT22;26811;53.160;8.202;2023-04-24T20:08:57;7.60;99.90
41060;DHT22;26811;53.160;8.202;2023-04-24T20:13:58;7.50;99.90
41060;DHT22;26811;53.160;8.202;2023-04-24T20:19:00;7.50;99.90
41060;DHT22;26811;53.160;8.202;2023-04-24T20:24:01;7.50;99.90
41060;DHT22;26811;53.160;8.202;2023-04-24T20:29:03;7.50;99.90
41060;DHT22;26811;53.160;8.202;2023-04-24T20:34:04;7.50;99.90
41060;DHT22;26811;53.160;8.202;2023-04-24T20:39:05;7.40;99.90
41060;DHT22;26811;53.160;8.202;2023-04-24T20:44:07;7.50;99.90
41060;DHT22;26811;53.160;8.202;2023-04-24T20:49:07;7.50;99.90
41060;DHT22;26811;53.160;8.202;2023-04-24T20:54:08;7.50;99.90
41060;DHT22;26811;53.160;8.202;2023-04-24T20:59:08;7.50;99.90
41060;DHT22;26811;53.160;8.202;2023-04-24T21:04:12;7.50;99.90
41060;DHT22;26811;53.160;8.202;2023-04-24T21:09:12;7.40;99.90
41060;DHT22;26811;53.160;8.202;2023-04-24T21:14:13;7.40;99.90
41060;DHT22;26811;53.160;8.202;2023-04-24T21:19:14;7.30;99.90
41060;DHT22;26811;53.160;8.202;2023-04-24T21:24:15;7.40;99.90
41060;DHT22;26811;53.160;8.202;2023-04-24T21:29:15;7.40;99.90
41060;DHT22;26811;53.160;8.202;2023-04-24T21:34:16;7.40;99.90
41060;DHT22;26811;53.160;8.202;2023-04-24T21:39:16;7.40;99.90
41060;DHT22;26811;53.160;8.202;2023-04-24T21:44:17;7.40;99.90
41060;DHT22;26811;53.160;8.202;2023-04-24T21:49:18;7.50;99.90
41060;DHT22;26811;53.160;8.202;2023-04-24T21:54:18;7.50;99.90
41060;DHT22;26811;53.160;8.202;2023-04-24T21:59:20;7.50;99.90
41060;DHT22;26811;53.160;8.202;2023-04-24T22:04:20;7.50;99.90
41060;DHT22;26811;53.160;8.202;2023-04-24T22:09:21;7.50;99.90
41060;DHT22;26811;53.160;8.202;2023-04-24T22:14:22;7.50;99.90
41060;DHT22;26811;53.160;8.202;2023-04-24T22:19:22;7.60;99.90
41060;DHT22;26811;53.160;8.202;2023-04-24T22:24:25;7.50;99.90
41060;DHT22;26811;53.160;8.202;2023-04-24T22:29:25;7.60;99.90
41060;DHT22;26811;53.160;8.202;2023-04-24T22:34:26;7.60;99.90
41060;DHT22;26811;53.160;8.202;2023-04-24T22:39:27;7.60;99.90
41060;DHT22;26811;53.160;8.202;2023-04-24T22:44:27;7.60;99.90
41060;DHT22;26811;53.160;8.202;2023-04-24T22:49:28;7.60;99.90
41060;DHT22;26811;53.160;8.202;2023-04-24T22:54:32;7.60;99.90
41060;DHT22;26811;53.160;8.202;2023-04-24T22:59:34;7.60;99.90
41060;DHT22;26811;53.160;8.202;2023-04-24T23:04:34;7.60;99.90
41060;DHT22;26811;53.160;8.202;2023-04-24T23:09:35;7.40;99.90
41060;DHT22;26811;53.160;8.202;2023-04-24T23:14:36;7.40;99.90
41060;DHT22;26811;53.160;8.202;2023-04-24T23:19:37;7.40;99.90
41060;DHT22;26811;53.160;8.202;2023-04-24T23:24:40;7.30;99.90
41060;DHT22;26811;53.160;8.202;2023-04-24T23:29:41;7.20;99.90
41060;DHT22;26811;53.160;8.202;2023-04-24T23:34:41;7.10;99.90
41060;DHT22;26811;53.160;8.202;2023-04-24T23:39:42;7.10;99.90
41060;DHT22;26811;53.160;8.202;2023-04-24T23:44:42;7.10;99.90
41060;DHT22;26811;53.160;8.202;2023-04-24T23:49:43;7.00;99.90
41060;DHT22;26811;53.160;8.202;2023-04-24T23:54:44;7.00;99.90
41060;DHT22;26811;53.160;8.202;2023-04-24T23:59:44;7.00;99.90
